createdAt,value
2019-04-25T00:00:44.574Z,99.90
2019-04-25T00:03:15.248Z,99.90
2019-04-25T00:05:45.232Z,99.90
2019-04-25T00:08:15.212Z,99.90
2019-04-25T00:10:45.423Z,99.90
2019-04-25T00:13:15.582Z,99.90
2019-04-25T00:15:46.291Z,99.90
2019-04-25T00:18:16.707Z,99.90
2019-04-25T00:20:48.796Z,99.90
2019-04-25T00:23:19.344Z,99.90
2019-04-25T00:26:02.232Z,99.90
2019-04-25T00:28:31.848Z,99.90
2019-04-25T00:31:02.143Z,99.90
2019-04-25T00:33:31.876Z,99.90
2019-04-25T00:36:02.106Z,99.90
2019-04-25T00:38:32.744Z,99.90
2019-04-25T00:41:02.384Z,99.90
2019-04-25T00:43:32.231Z,99.90
2019-04-25T00:46:01.959Z,99.90
2019-04-25T00:48:31.786Z,99.90
2019-04-25T00:51:01.883Z,99.90
2019-04-25T00:53:32.399Z,99.90
2019-04-25T00:56:02.174Z,99.90
2019-04-25T00:58:53.179Z,99.90
2019-04-25T01:01:39.412Z,99.90
2019-04-25T01:04:09.344Z,99.90
2019-04-25T01:06:39.028Z,99.90
2019-04-25T01:09:10.286Z,99.90
2019-04-25T01:11:39.925Z,99.90
2019-04-25T01:14:09.804Z,99.90
2019-04-25T01:16:39.448Z,99.90
2019-04-25T01:19:09.061Z,99.90
2019-04-25T01:21:38.712Z,99.90
2019-04-25T01:24:08.397Z,99.90
2019-04-25T01:26:38.101Z,99.90
2019-04-25T01:29:08.828Z,99.90
2019-04-25T01:31:38.472Z,99.90
2019-04-25T01:34:09.984Z,99.90
2019-04-25T01:36:47.222Z,99.90
2019-04-25T01:39:21.357Z,99.90
2019-04-25T01:41:54.931Z,99.90
2019-04-25T01:44:25.642Z,99.90
2019-04-25T01:46:55.625Z,99.90
2019-04-25T01:49:27.533Z,99.90
2019-04-25T01:51:58.339Z,99.90
2019-04-25T01:54:28.266Z,99.90
2019-04-25T01:56:57.990Z,99.90
2019-04-25T01:59:27.608Z,99.90
2019-04-25T02:01:57.382Z,99.90
2019-04-25T02:04:27.173Z,99.90
2019-04-25T02:06:57.071Z,99.90
2019-04-25T02:09:27.241Z,99.90
2019-04-25T02:11:58.889Z,99.90
2019-04-25T02:14:28.908Z,99.90
2019-04-25T02:16:58.554Z,99.90
2019-04-25T02:19:28.166Z,99.90
2019-04-25T02:21:57.888Z,99.90
2019-04-25T02:24:27.775Z,99.90
2019-04-25T02:26:57.413Z,99.90
2019-04-25T02:29:27.029Z,99.90
2019-04-25T02:31:59.238Z,99.90
2019-04-25T02:34:27.911Z,99.90
2019-04-25T02:37:00.708Z,99.90
2019-04-25T02:39:30.057Z,99.90
2019-04-25T02:42:01.121Z,99.90
2019-04-25T02:44:34.532Z,99.90
2019-04-25T02:47:20.697Z,99.90
2019-04-25T02:49:57.322Z,99.90
2019-04-25T02:52:30.496Z,99.90
2019-04-25T02:55:00.800Z,99.90
2019-04-25T02:57:31.355Z,99.90
2019-04-25T03:00:02.696Z,99.90
2019-04-25T03:02:34.354Z,99.90
2019-04-25T03:05:07.893Z,99.90
2019-04-25T03:07:35.373Z,99.90
2019-04-25T03:10:09.342Z,99.90
2019-04-25T03:12:38.524Z,99.90
2019-04-25T03:15:10.259Z,99.90
2019-04-25T03:17:40.084Z,99.90
2019-04-25T03:20:14.889Z,99.90
2019-04-25T03:22:44.695Z,99.90
2019-04-25T03:25:17.401Z,99.90
2019-04-25T03:27:45.708Z,99.90
2019-04-25T03:30:17.943Z,99.90
2019-04-25T03:32:46.913Z,99.90
2019-04-25T03:35:16.708Z,99.90
2019-04-25T03:37:46.337Z,99.90
2019-04-25T03:40:15.972Z,99.90
2019-04-25T03:42:45.589Z,99.90
2019-04-25T03:45:15.303Z,99.90
2019-04-25T03:47:44.916Z,99.90
2019-04-25T03:50:14.698Z,99.90
2019-04-25T03:52:44.307Z,99.90
2019-04-25T03:55:14.408Z,99.90
2019-04-25T03:57:44.415Z,99.90
2019-04-25T04:00:14.836Z,99.90
2019-04-25T04:02:44.484Z,99.90
2019-04-25T04:05:14.965Z,99.90
2019-04-25T04:07:44.744Z,99.90
2019-04-25T04:10:15.485Z,99.90
2019-04-25T04:12:45.181Z,99.90
2019-04-25T04:15:15.963Z,99.90
2019-04-25T04:17:59.406Z,99.90
2019-04-25T04:20:45.673Z,99.90
2019-04-25T04:23:25.980Z,99.90
2019-04-25T04:25:55.690Z,99.90
2019-04-25T04:28:25.314Z,99.90
2019-04-25T04:30:54.941Z,99.90
2019-04-25T04:33:31.826Z,99.90
2019-04-25T04:35:55.820Z,99.90
2019-04-25T04:38:25.481Z,99.90
2019-04-25T04:40:55.189Z,99.90
2019-04-25T04:43:25.626Z,99.90
2019-04-25T04:45:55.342Z,99.90
2019-04-25T04:48:24.952Z,99.90
2019-04-25T04:50:54.592Z,99.90
2019-04-25T04:53:24.200Z,99.90
2019-04-25T04:55:54.379Z,99.90
2019-04-25T04:58:25.147Z,99.90
2019-04-25T05:00:54.897Z,99.90
2019-04-25T05:03:26.672Z,99.90
2019-04-25T05:06:04.205Z,99.90
2019-04-25T05:08:35.461Z,99.90
2019-04-25T05:11:05.101Z,99.90
2019-04-25T05:13:34.712Z,99.90
2019-04-25T05:16:04.421Z,99.90
2019-04-25T05:18:39.792Z,99.90
2019-04-25T05:21:05.293Z,99.90
2019-04-25T05:23:35.456Z,99.90
2019-04-25T05:26:05.733Z,99.90
2019-04-25T05:28:35.694Z,99.90
2019-04-25T05:31:09.647Z,99.90
2019-04-25T05:33:39.253Z,99.90
2019-04-25T05:36:08.893Z,99.90
2019-04-25T05:38:38.500Z,99.90
2019-04-25T05:41:09.793Z,99.90
2019-04-25T05:43:39.414Z,99.90
2019-04-25T05:46:09.053Z,99.90
2019-04-25T05:48:38.669Z,99.90
2019-04-25T05:51:08.308Z,99.90
2019-04-25T05:53:37.934Z,99.90
2019-04-25T05:56:07.580Z,99.90
2019-04-25T05:58:37.181Z,99.90
2019-04-25T06:01:06.824Z,99.90
2019-04-25T06:03:36.441Z,99.90
2019-04-25T06:06:06.397Z,99.90
2019-04-25T06:08:37.640Z,99.90
2019-04-25T06:11:18.024Z,99.90
2019-04-25T06:13:53.179Z,99.90
2019-04-25T06:16:27.006Z,99.90
2019-04-25T06:18:57.451Z,99.90
2019-04-25T06:21:27.579Z,99.90
2019-04-25T06:24:11.321Z,99.90
2019-04-25T06:26:43.346Z,99.90
2019-04-25T06:29:13.405Z,99.90
2019-04-25T06:31:43.900Z,99.90
2019-04-25T06:34:14.074Z,99.90
2019-04-25T06:36:44.115Z,99.90
2019-04-25T06:39:14.172Z,99.90
2019-04-25T06:41:44.638Z,99.90
2019-04-25T06:44:30.948Z,99.90
2019-04-25T06:47:03.381Z,99.90
2019-04-25T06:49:41.001Z,99.90
2019-04-25T06:52:11.216Z,99.90
2019-04-25T06:54:41.026Z,99.90
2019-04-25T06:57:10.665Z,99.90
2019-04-25T06:59:59.638Z,99.90
2019-04-25T07:02:29.280Z,99.90
2019-04-25T07:04:58.905Z,99.90
2019-04-25T07:07:28.925Z,99.90
2019-04-25T07:09:58.581Z,99.90
2019-04-25T07:12:30.570Z,99.90
2019-04-25T07:14:59.580Z,99.90
2019-04-25T07:17:29.236Z,99.90
2019-04-25T07:19:58.866Z,99.90
2019-04-25T07:22:28.758Z,99.90
2019-04-25T07:24:58.440Z,99.90
2019-04-25T07:27:44.845Z,99.90
2019-04-25T07:30:45.240Z,99.90
2019-04-25T07:33:03.843Z,99.90
2019-04-25T07:35:34.583Z,99.90
2019-04-25T07:38:04.450Z,99.90
2019-04-25T07:40:35.025Z,99.90
2019-04-25T07:43:05.565Z,99.90
2019-04-25T07:45:36.237Z,99.90
2019-04-25T07:48:06.049Z,99.90
2019-04-25T07:50:36.641Z,99.90
2019-04-25T07:53:06.372Z,99.90
2019-04-25T07:55:37.833Z,99.90
2019-04-25T07:58:07.612Z,99.90
2019-04-25T08:00:37.606Z,99.90
2019-04-25T08:03:07.480Z,99.90
2019-04-25T08:05:37.899Z,99.50
2019-04-25T08:08:07.685Z,98.20
2019-04-25T08:10:58.627Z,96.20
2019-04-25T08:13:30.132Z,97.30
2019-04-25T08:16:04.350Z,97.00
2019-04-25T08:18:35.125Z,95.20
2019-04-25T08:21:05.656Z,93.90
2019-04-25T08:23:37.740Z,95.50
2019-04-25T08:26:06.772Z,93.40
2019-04-25T08:28:50.330Z,90.50
2019-04-25T08:31:08.145Z,88.20
2019-04-25T08:33:37.782Z,87.70
2019-04-25T08:36:09.262Z,80.80
2019-04-25T08:38:38.672Z,84.80
2019-04-25T08:41:08.393Z,74.80
2019-04-25T08:43:40.119Z,70.00
2019-04-25T08:46:09.282Z,74.60
2019-04-25T08:48:56.976Z,68.60
2019-04-25T08:51:28.257Z,65.60
2019-04-25T08:54:03.743Z,70.20
2019-04-25T08:56:35.622Z,71.70
2019-04-25T08:59:34.043Z,78.30
2019-04-25T09:01:57.254Z,64.90
2019-04-25T09:04:28.544Z,73.70
2019-04-25T09:06:58.160Z,75.90
2019-04-25T09:09:27.800Z,83.50
2019-04-25T09:11:57.444Z,77.60
2019-04-25T09:14:27.160Z,79.70
2019-04-25T09:16:56.953Z,80.10
2019-04-25T09:19:26.584Z,79.90
2019-04-25T09:21:56.236Z,72.90
2019-04-25T09:24:25.861Z,69.60
2019-04-25T09:26:55.584Z,69.80
2019-04-25T09:29:25.205Z,70.50
2019-04-25T09:31:54.854Z,65.50
2019-04-25T09:34:24.636Z,51.90
2019-04-25T09:36:54.277Z,46.30
2019-04-25T09:39:35.600Z,44.20
2019-04-25T09:42:05.572Z,43.20
2019-04-25T09:44:53.722Z,44.00
2019-04-25T09:47:23.532Z,42.30
2019-04-25T09:49:53.856Z,42.60
2019-04-25T09:52:24.393Z,41.40
2019-04-25T09:55:13.275Z,40.90
2019-04-25T09:57:47.547Z,40.50
2019-04-25T10:00:38.201Z,44.90
2019-04-25T10:03:08.224Z,40.10
2019-04-25T10:05:38.479Z,40.60
2019-04-25T10:08:13.431Z,39.20
2019-04-25T10:10:43.116Z,40.60
2019-04-25T10:13:12.736Z,40.70
2019-04-25T10:15:48.396Z,40.20
2019-04-25T10:18:18.025Z,40.70
2019-04-25T10:20:48.101Z,39.70
2019-04-25T10:23:17.967Z,40.00
2019-04-25T10:25:48.577Z,39.00
2019-04-25T10:28:18.442Z,38.80
2019-04-25T10:30:48.053Z,40.60
2019-04-25T10:33:20.436Z,40.40
2019-04-25T10:35:58.310Z,40.90
2019-04-25T10:38:21.412Z,40.20
2019-04-25T10:40:51.201Z,40.70
2019-04-25T10:43:21.761Z,39.70
2019-04-25T10:45:53.370Z,39.60
2019-04-25T10:48:24.074Z,39.80
2019-04-25T10:50:55.620Z,39.50
2019-04-25T10:53:25.331Z,39.90
2019-04-25T10:55:55.014Z,40.40
2019-04-25T10:58:24.804Z,40.50
2019-04-25T11:00:54.565Z,38.80
2019-04-25T11:03:42.098Z,39.10
2019-04-25T11:06:14.178Z,38.90
2019-04-25T11:08:44.900Z,40.60
2019-04-25T11:11:14.706Z,40.10
2019-04-25T11:13:45.234Z,37.70
2019-04-25T11:16:15.620Z,38.20
2019-04-25T11:18:46.315Z,37.50
2019-04-25T11:21:16.170Z,36.60
2019-04-25T11:23:47.560Z,37.10
2019-04-25T11:26:17.126Z,37.20
2019-04-25T11:28:47.084Z,36.70
2019-04-25T11:31:18.337Z,36.50
2019-04-25T11:33:48.217Z,36.40
2019-04-25T11:36:17.842Z,37.20
2019-04-25T11:38:53.721Z,35.10
2019-04-25T11:41:24.512Z,35.00
2019-04-25T11:43:55.299Z,35.90
2019-04-25T11:46:25.290Z,37.50
2019-04-25T11:48:54.933Z,36.20
2019-04-25T11:51:24.868Z,33.60
2019-04-25T11:53:55.504Z,34.00
2019-04-25T11:56:25.572Z,35.30
2019-04-25T11:58:55.286Z,33.00
2019-04-25T12:01:25.179Z,34.10
2019-04-25T12:03:56.069Z,35.80
2019-04-25T12:06:25.745Z,37.60
2019-04-25T12:08:56.390Z,32.10
2019-04-25T12:11:26.118Z,37.10
2019-04-25T12:13:55.837Z,33.50
2019-04-25T12:16:25.531Z,32.90
2019-04-25T12:18:56.485Z,34.90
2019-04-25T12:21:26.184Z,33.80
2019-04-25T12:23:55.903Z,33.30
2019-04-25T12:26:26.275Z,33.00
2019-04-25T12:28:56.578Z,34.00
2019-04-25T12:31:26.273Z,33.10
2019-04-25T12:33:57.448Z,34.50
2019-04-25T12:36:27.285Z,34.20
2019-04-25T12:38:58.769Z,33.60
2019-04-25T12:41:28.794Z,34.00
2019-04-25T12:44:00.088Z,34.80
2019-04-25T12:46:31.348Z,33.90
2019-04-25T12:49:00.992Z,33.40
2019-04-25T12:51:30.621Z,34.30
2019-04-25T12:54:00.338Z,33.80
2019-04-25T12:56:30.132Z,35.00
2019-04-25T12:59:00.502Z,35.40
2019-04-25T13:01:30.210Z,34.60
2019-04-25T13:03:59.863Z,36.20
2019-04-25T13:06:29.648Z,35.80
2019-04-25T13:08:59.503Z,35.00
2019-04-25T13:11:29.280Z,33.90
2019-04-25T13:16:24.957Z,33.40
2019-04-25T13:18:55.561Z,35.50
2019-04-25T13:21:25.431Z,38.40
2019-04-25T13:23:55.739Z,35.40
2019-04-25T13:26:27.992Z,34.60
2019-04-25T13:29:15.769Z,34.50
2019-04-25T13:32:05.272Z,34.90
2019-04-25T13:34:44.851Z,33.30
2019-04-25T13:37:14.151Z,34.10
2019-04-25T13:39:44.226Z,34.90
2019-04-25T13:42:14.516Z,34.20
2019-04-25T13:44:44.426Z,33.50
2019-04-25T13:47:14.134Z,32.90
2019-04-25T13:49:43.880Z,33.40
2019-04-25T13:52:13.654Z,34.10
2019-04-25T13:54:43.646Z,33.70
2019-04-25T13:57:13.374Z,34.20
2019-04-25T13:59:44.343Z,33.30
2019-04-25T14:02:14.344Z,35.30
2019-04-25T14:04:44.301Z,34.00
2019-04-25T14:07:14.144Z,34.60
2019-04-25T14:09:44.750Z,35.30
2019-04-25T14:12:14.587Z,34.90
2019-04-25T14:14:44.296Z,35.00
2019-04-25T14:17:15.560Z,35.00
2019-04-25T14:19:49.810Z,36.00
2019-04-25T14:22:19.496Z,36.20
2019-04-25T14:24:49.142Z,35.90
2019-04-25T14:27:19.401Z,35.10
2019-04-25T14:29:49.129Z,36.20
2019-04-25T14:32:19.701Z,36.80
2019-04-25T14:34:49.354Z,39.10
2019-04-25T14:37:18.985Z,38.50
2019-04-25T14:39:48.632Z,39.10
2019-04-25T14:42:18.321Z,38.00
2019-04-25T14:44:47.966Z,37.00
2019-04-25T14:47:17.589Z,37.10
2019-04-25T14:49:47.318Z,37.20
2019-04-25T14:52:16.936Z,38.30
2019-04-25T14:54:48.229Z,37.90
2019-04-25T14:57:26.122Z,38.80
2019-04-25T14:59:55.840Z,39.60
2019-04-25T15:02:27.828Z,38.70
2019-04-25T15:04:57.561Z,38.30
2019-04-25T15:07:27.180Z,38.90
2019-04-25T15:09:56.824Z,38.80
2019-04-25T15:12:26.853Z,38.10
2019-04-25T15:14:56.629Z,38.10
2019-04-25T15:17:26.465Z,38.40
2019-04-25T15:19:56.232Z,39.20
2019-04-25T15:22:25.890Z,40.40
2019-04-25T15:24:55.512Z,41.00
2019-04-25T15:27:25.258Z,40.80
2019-04-25T15:29:55.053Z,40.20
2019-04-25T15:32:27.439Z,40.20
2019-04-25T15:34:58.930Z,40.10
2019-04-25T15:37:33.177Z,38.80
2019-04-25T15:40:07.244Z,38.30
2019-04-25T15:42:50.602Z,39.40
2019-04-25T15:45:34.273Z,39.40
2019-04-25T15:48:05.815Z,37.60
2019-04-25T15:50:35.445Z,38.50
2019-04-25T15:53:05.157Z,38.20
2019-04-25T15:55:34.953Z,39.70
2019-04-25T15:58:04.773Z,37.70
2019-04-25T16:00:35.460Z,38.30
2019-04-25T16:03:05.844Z,38.70
2019-04-25T16:05:35.973Z,38.90
2019-04-25T16:08:06.128Z,39.80
2019-04-25T16:10:36.542Z,40.90
2019-04-25T16:13:06.584Z,40.60
2019-04-25T16:15:36.214Z,41.00
2019-04-25T16:18:07.475Z,42.40
2019-04-25T16:20:37.081Z,43.10
2019-04-25T16:23:07.260Z,43.30
2019-04-25T16:25:36.894Z,44.70
2019-04-25T16:28:08.264Z,44.80
2019-04-25T16:30:38.636Z,44.60
2019-04-25T16:33:08.636Z,45.40
2019-04-25T16:35:38.327Z,44.80
2019-04-25T16:38:08.442Z,44.80
2019-04-25T16:40:38.072Z,45.30
2019-04-25T16:43:09.422Z,44.60
2019-04-25T16:45:40.180Z,43.60
2019-04-25T16:48:09.829Z,43.50
2019-04-25T16:50:40.003Z,43.50
2019-04-25T16:53:09.736Z,43.80
2019-04-25T16:55:39.384Z,43.60
2019-04-25T16:58:09.497Z,43.90
2019-04-25T17:00:47.490Z,43.70
2019-04-25T17:03:17.573Z,43.60
2019-04-25T17:05:47.192Z,44.10
2019-04-25T17:08:17.390Z,45.20
2019-04-25T17:10:47.022Z,44.10
2019-04-25T17:13:17.312Z,45.00
2019-04-25T17:15:48.573Z,44.40
2019-04-25T17:18:19.928Z,44.10
2019-04-25T17:20:57.096Z,42.60
2019-04-25T17:23:26.827Z,43.00
2019-04-25T17:25:56.440Z,42.60
2019-04-25T17:28:26.688Z,42.10
2019-04-25T17:31:07.209Z,41.50
2019-04-25T17:33:38.561Z,40.50
2019-04-25T17:36:16.012Z,40.90
2019-04-25T17:38:47.288Z,40.60
2019-04-25T17:41:16.905Z,40.50
2019-04-25T17:43:46.550Z,40.80
2019-04-25T17:46:17.805Z,41.40
2019-04-25T17:48:47.444Z,43.00
2019-04-25T17:51:17.073Z,43.80
2019-04-25T17:53:53.489Z,44.30
2019-04-25T17:56:25.121Z,45.60
2019-04-25T17:58:54.451Z,45.50
2019-04-25T18:01:25.280Z,45.70
2019-04-25T18:03:55.164Z,46.80
2019-04-25T18:06:24.788Z,47.90
2019-04-25T18:08:54.437Z,49.40
2019-04-25T18:11:24.056Z,49.90
2019-04-25T18:13:53.708Z,49.90
2019-04-25T18:16:30.765Z,48.30
2019-04-25T18:19:04.763Z,47.90
2019-04-25T18:21:35.383Z,48.00
2019-04-25T18:24:07.525Z,50.20
2019-04-25T18:26:45.608Z,50.40
2019-04-25T18:29:19.729Z,50.20
2019-04-25T18:31:49.359Z,51.80
2019-04-25T18:34:26.338Z,53.10
2019-04-25T18:37:09.832Z,57.10
2019-04-25T18:39:41.954Z,58.30
2019-04-25T18:42:16.328Z,57.00
2019-04-25T18:44:46.213Z,58.20
2019-04-25T18:47:16.005Z,59.60
2019-04-25T18:49:46.750Z,62.50
2019-04-25T18:52:21.093Z,67.80
2019-04-25T18:54:54.860Z,67.70
2019-04-25T18:57:32.048Z,68.90
2019-04-25T19:00:03.333Z,74.40
2019-04-25T19:02:46.569Z,75.00
2019-04-25T19:05:23.465Z,79.60
2019-04-25T19:07:53.076Z,86.40
2019-04-25T19:10:23.865Z,83.80
2019-04-25T19:12:53.490Z,83.20
2019-04-25T19:15:23.214Z,92.00
2019-04-25T19:17:52.829Z,93.40
2019-04-25T19:20:22.716Z,95.00
2019-04-25T19:22:52.640Z,94.70
2019-04-25T19:25:22.354Z,93.00
2019-04-25T19:27:51.978Z,94.90
2019-04-25T19:30:21.800Z,95.60
2019-04-25T19:32:51.625Z,95.80
2019-04-25T19:35:21.472Z,95.40
2019-04-25T19:37:51.113Z,98.00
2019-04-25T19:40:37.507Z,97.60
2019-04-25T19:43:21.207Z,98.20
2019-04-25T19:45:51.208Z,99.60
2019-04-25T19:48:20.956Z,99.90
2019-04-25T19:50:52.736Z,99.00
2019-04-25T19:53:22.478Z,98.00
2019-04-25T19:55:52.121Z,96.80
2019-04-25T19:58:21.745Z,95.20
2019-04-25T20:00:51.390Z,94.70
2019-04-25T20:03:25.702Z,94.90
2019-04-25T20:06:06.031Z,93.50
2019-04-25T20:08:37.292Z,92.70
2019-04-25T20:11:08.585Z,92.00
2019-04-25T20:13:38.205Z,93.00
2019-04-25T20:16:07.925Z,95.60
2019-04-25T20:18:37.555Z,97.00
2019-04-25T20:21:07.214Z,95.40
2019-04-25T20:23:36.833Z,98.40
2019-04-25T20:26:06.621Z,98.90
2019-04-25T20:28:36.249Z,92.80
2019-04-25T20:31:05.901Z,90.00
2019-04-25T20:33:35.521Z,93.70
2019-04-25T20:36:17.015Z,93.20
2019-04-25T20:38:36.593Z,93.20
2019-04-25T20:41:06.311Z,95.10
2019-04-25T20:43:35.961Z,95.80
2019-04-25T20:46:06.049Z,97.60
2019-04-25T20:48:35.673Z,96.60
2019-04-25T20:51:05.328Z,93.80
2019-04-25T20:53:34.954Z,98.50
2019-04-25T20:56:04.748Z,99.00
2019-04-25T20:58:34.373Z,99.80
2019-04-25T21:01:04.083Z,99.20
2019-04-25T21:03:33.713Z,99.20
2019-04-25T21:06:05.069Z,98.70
2019-04-25T21:08:34.694Z,98.10
2019-04-25T21:11:04.408Z,98.90
2019-04-25T21:13:52.993Z,99.30
2019-04-25T21:16:42.745Z,99.90
2019-04-25T21:19:26.014Z,99.90
2019-04-25T21:21:56.554Z,99.90
2019-04-25T21:24:26.266Z,99.90
2019-04-25T21:26:56.774Z,99.90
2019-04-25T21:29:26.482Z,99.90
2019-04-25T21:31:56.730Z,99.90
2019-04-25T21:34:30.279Z,99.90
2019-04-25T21:36:57.808Z,99.90
2019-04-25T21:40:02.465Z,99.90
2019-04-25T21:42:33.851Z,99.90
2019-04-25T21:45:04.316Z,99.90
2019-04-25T21:47:33.968Z,99.90
2019-04-25T21:50:06.340Z,99.90
2019-04-25T21:52:36.080Z,99.90
2019-04-25T21:55:06.445Z,99.90
2019-04-25T21:57:36.296Z,99.90
2019-04-25T22:00:13.316Z,99.90
2019-04-25T22:02:43.171Z,99.90
2019-04-25T22:05:13.154Z,99.90
2019-04-25T22:07:43.099Z,99.90
2019-04-25T22:10:13.260Z,99.90
2019-04-25T22:12:42.906Z,99.90
2019-04-25T22:15:13.215Z,99.90
2019-04-25T22:17:42.853Z,99.90
2019-04-25T22:20:12.605Z,99.90
2019-04-25T22:22:42.548Z,99.90
2019-04-25T22:25:12.176Z,99.90
2019-04-25T22:27:41.988Z,99.90
2019-04-25T22:30:13.585Z,99.90
2019-04-25T22:32:47.858Z,99.90
2019-04-25T22:35:24.829Z,99.90
2019-04-25T22:37:54.483Z,99.90
2019-04-25T22:40:24.101Z,99.90
2019-04-25T22:42:53.745Z,99.90
2019-04-25T22:45:23.440Z,99.90
2019-04-25T22:47:53.481Z,99.90
2019-04-25T22:50:23.436Z,99.90
2019-04-25T22:52:53.050Z,99.90
2019-04-25T22:55:22.668Z,99.90
2019-04-25T22:57:52.309Z,99.90
2019-04-25T23:00:26.760Z,99.90
2019-04-25T23:03:02.312Z,99.90
2019-04-25T23:05:34.129Z,99.90
2019-04-25T23:08:04.165Z,99.90
2019-04-25T23:10:33.802Z,99.90
2019-04-25T23:13:04.583Z,99.90
2019-04-25T23:15:34.400Z,99.90
2019-04-25T23:18:05.321Z,99.90
2019-04-25T23:20:35.041Z,99.90
2019-04-25T23:23:05.808Z,99.90
2019-04-25T23:25:37.116Z,99.90
2019-04-25T23:28:08.400Z,99.90
2019-04-25T23:30:39.940Z,99.90
2019-04-25T23:33:10.540Z,99.90
2019-04-25T23:35:41.936Z,99.90
2019-04-25T23:38:13.766Z,99.90
2019-04-25T23:40:42.825Z,99.90
2019-04-25T23:43:13.696Z,99.90
2019-04-25T23:45:43.389Z,99.90
2019-04-25T23:48:14.440Z,99.90
2019-04-25T23:50:44.160Z,99.90
2019-04-25T23:53:14.939Z,99.90
2019-04-25T23:55:44.692Z,99.90
2019-04-25T23:58:14.667Z,99.90
